Auckland, New Zealand
Current Conditions -  °F | °C
As of 1:30 AM on Monday 24 Nov 2014 (Local Time) from NZAA Reporting Station
Few Clouds Few Clouds  
Wind Chill: 57°   Ceiling: Unl
Heat Index: 57°   Visibility: 6mi
Dew Point: 52°   Wind: 6mph
Humidity: 82%   Direction: 140°SE
Pressure: 30.06"   Gusts: NA
Location:  36.85°S, 174.77°E
Report Text: NZAA 231330Z AUTO 14005KT 9999 FEW090/// 14/11 Q1018 NOSIG
Loading
Personal Weather Stations






























Interactive Weather Map New forecast layout! Learn more

10-Day Weather Forecast

Advertisements
Track Severe Weather on mobile